Notre Dame, Indiana
Current Conditions -  °F | °C
As of 10:54 AM on Thursday 23 Oct 2014 (Local Time) from KSBN Reporting Station
Clear Clear  
Wind Chill: 43°   Ceiling: Unl
Heat Index: 47°   Visibility: 7mi
Dew Point: 42°   Wind: 8mph
Humidity: 83%   Direction: 200°SSW
Pressure: 30.26"   Gusts: NA
Location:  41.72°N, 86.25°W
Report Text: KSBN 231454Z 20007KT 7SM CLR 08/06 A3026 RMK AO2 SLP251 T00830056 50003
Loading
Personal Weather Stations






























Interactive Weather Map
Tropical Storm Tracking
New forecast layout! Learn more

10-Day Weather Forecast

Advertisements
Track Severe Weather on mobile